sensor_id;sensor_type;location;lat;lon;timestamp;P1;durP1;ratioP1;P2;durP2;ratioP2
21432;SDS011;18592;49.708;10.900;2023-03-20T00:01:58;2.72;;;2.00;;
21432;SDS011;18592;49.708;10.900;2023-03-20T00:04:04;2.75;;;1.88;;
21432;SDS011;18592;49.708;10.900;2023-03-20T00:06:16;2.30;;;1.92;;
21432;SDS011;18592;49.708;10.900;2023-03-20T00:08:19;2.30;;;2.10;;
21432;SDS011;18592;49.708;10.900;2023-03-20T00:10:21;2.38;;;2.10;;
21432;SDS011;18592;49.708;10.900;2023-03-20T00:12:28;2.05;;;1.80;;
21432;SDS011;18592;49.708;10.900;2023-03-20T00:14:30;2.95;;;1.98;;
21432;SDS011;18592;49.708;10.900;2023-03-20T00:16:36;2.47;;;1.67;;
21432;SDS011;18592;49.708;10.900;2023-03-20T00:18:42;2.30;;;1.83;;
21432;SDS011;18592;49.708;10.900;2023-03-20T00:20:48;2.72;;;1.80;;
21432;SDS011;18592;49.708;10.900;2023-03-20T00:22:50;2.60;;;1.90;;
21432;SDS011;18592;49.708;10.900;2023-03-20T00:24:52;1.77;;;1.67;;
21432;SDS011;18592;49.708;10.900;2023-03-20T00:26:57;2.70;;;1.70;;
21432;SDS011;18592;49.708;10.900;2023-03-20T00:28:58;1.83;;;1.65;;
21432;SDS011;18592;49.708;10.900;2023-03-20T00:31:01;1.75;;;1.58;;
21432;SDS011;18592;49.708;10.900;2023-03-20T00:33:04;2.35;;;2.15;;
21432;SDS011;18592;49.708;10.900;2023-03-20T00:35:14;3.45;;;1.92;;
21432;SDS011;18592;49.708;10.900;2023-03-20T00:37:20;1.98;;;1.77;;
21432;SDS011;18592;49.708;10.900;2023-03-20T00:39:23;2.33;;;1.95;;
21432;SDS011;18592;49.708;10.900;2023-03-20T00:41:26;4.30;;;2.40;;
21432;SDS011;18592;49.708;10.900;2023-03-20T00:43:31;2.53;;;2.20;;
21432;SDS011;18592;49.708;10.900;2023-03-20T00:45:32;3.05;;;2.17;;
21432;SDS011;18592;49.708;10.900;2023-03-20T00:47:38;2.20;;;2.00;;
21432;SDS011;18592;49.708;10.900;2023-03-20T00:49:42;3.17;;;2.30;;
21432;SDS011;18592;49.708;10.900;2023-03-20T00:51:47;2.47;;;2.20;;
21432;SDS011;18592;49.708;10.900;2023-03-20T00:53:51;2.70;;;2.10;;
21432;SDS011;18592;49.708;10.900;2023-03-20T00:55:53;2.67;;;1.85;;
21432;SDS011;18592;49.708;10.900;2023-03-20T00:57:57;2.08;;;1.88;;
21432;SDS011;18592;49.708;10.900;2023-03-20T01:02:07;2.10;;;1.90;;
21432;SDS011;18592;49.708;10.900;2023-03-20T01:04:12;2.67;;;2.05;;
21432;SDS011;18592;49.708;10.900;2023-03-20T01:06:17;2.60;;;2.30;;
21432;SDS011;18592;49.708;10.900;2023-03-20T01:08:21;3.25;;;2.47;;
21432;SDS011;18592;49.708;10.900;2023-03-20T01:10:27;2.28;;;2.05;;
21432;SDS011;18592;49.708;10.900;2023-03-20T01:12:31;2.10;;;1.90;;
21432;SDS011;18592;49.708;10.900;2023-03-20T01:14:33;2.30;;;1.90;;
21432;SDS011;18592;49.708;10.900;2023-03-20T01:16:35;3.40;;;2.13;;
21432;SDS011;18592;49.708;10.900;2023-03-20T01:18:39;3.10;;;2.10;;
21432;SDS011;18592;49.708;10.900;2023-03-20T01:20:46;2.78;;;1.90;;
21432;SDS011;18592;49.708;10.900;2023-03-20T01:22:49;2.72;;;2.47;;
21432;SDS011;18592;49.708;10.900;2023-03-20T01:24:51;3.15;;;2.17;;
21432;SDS011;18592;49.708;10.900;2023-03-20T01:26:53;2.42;;;2.10;;
21432;SDS011;18592;49.708;10.900;2023-03-20T01:28:55;2.30;;;2.10;;
21432;SDS011;18592;49.708;10.900;2023-03-20T01:31:00;2.25;;;2.05;;
21432;SDS011;18592;49.708;10.900;2023-03-20T01:33:11;2.42;;;2.10;;
21432;SDS011;18592;49.708;10.900;2023-03-20T01:35:18;2.38;;;2.17;;
21432;SDS011;18592;49.708;10.900;2023-03-20T01:37:25;2.92;;;2.28;;
21432;SDS011;18592;49.708;10.900;2023-03-20T01:39:32;2.75;;;2.40;;
21432;SDS011;18592;49.708;10.900;2023-03-20T01:41:36;2.90;;;2.60;;
21432;SDS011;18592;49.708;10.900;2023-03-20T01:43:38;2.83;;;2.47;;
21432;SDS011;18592;49.708;10.900;2023-03-20T01:45:48;2.15;;;1.95;;
21432;SDS011;18592;49.708;10.900;2023-03-20T01:47:56;3.22;;;2.67;;
21432;SDS011;18592;49.708;10.900;2023-03-20T01:52:34;2.90;;;2.60;;
21432;SDS011;18592;49.708;10.900;2023-03-20T01:54:36;3.67;;;2.50;;
21432;SDS011;18592;49.708;10.900;2023-03-20T01:56:44;3.63;;;2.67;;
21432;SDS011;18592;49.708;10.900;2023-03-20T01:58:52;3.55;;;2.70;;
21432;SDS011;18592;49.708;10.900;2023-03-20T02:01:00;3.78;;;2.50;;
21432;SDS011;18592;49.708;10.900;2023-03-20T02:03:03;2.45;;;2.25;;
21432;SDS011;18592;49.708;10.900;2023-03-20T02:05:34;2.22;;;2.03;;
21432;SDS011;18592;49.708;10.900;2023-03-20T02:07:38;3.20;;;2.90;;
21432;SDS011;18592;49.708;10.900;2023-03-20T02:09:43;2.65;;;2.45;;
21432;SDS011;18592;49.708;10.900;2023-03-20T02:11:52;4.13;;;2.33;;
21432;SDS011;18592;49.708;10.900;2023-03-20T02:13:56;2.80;;;2.50;;
21432;SDS011;18592;49.708;10.900;2023-03-20T02:16:10;2.40;;;2.20;;
21432;SDS011;18592;49.708;10.900;2023-03-20T02:18:39;2.45;;;2.25;;
21432;SDS011;18592;49.708;10.900;2023-03-20T02:23:28;3.85;;;3.10;;
21432;SDS011;18592;49.708;10.900;2023-03-20T02:25:49;4.00;;;2.25;;
21432;SDS011;18592;49.708;10.900;2023-03-20T02:30:59;2.50;;;2.30;;
21432;SDS011;18592;49.708;10.900;2023-03-20T02:40:58;2.63;;;2.30;;
21432;SDS011;18592;49.708;10.900;2023-03-20T02:43:20;2.30;;;2.10;;
21432;SDS011;18592;49.708;10.900;2023-03-20T02:45:52;2.40;;;2.20;;
21432;SDS011;18592;49.708;10.900;2023-03-20T02:48:18;2.80;;;2.30;;
21432;SDS011;18592;49.708;10.900;2023-03-20T02:50:26;2.78;;;2.33;;
21432;SDS011;18592;49.708;10.900;2023-03-20T02:57:04;2.50;;;2.10;;
21432;SDS011;18592;49.708;10.900;2023-03-20T02:59:34;4.05;;;2.30;;
21432;SDS011;18592;49.708;10.900;2023-03-20T03:01:46;2.47;;;2.28;;
21432;SDS011;18592;49.708;10.900;2023-03-20T03:03:55;3.50;;;2.40;;
21432;SDS011;18592;49.708;10.900;2023-03-20T03:06:03;2.60;;;2.40;;
21432;SDS011;18592;49.708;10.900;2023-03-20T03:08:16;2.97;;;2.67;;
21432;SDS011;18592;49.708;10.900;2023-03-20T03:10:23;3.10;;;2.40;;
21432;SDS011;18592;49.708;10.900;2023-03-20T03:12:34;3.28;;;2.10;;
21432;SDS011;18592;49.708;10.900;2023-03-20T03:14:40;3.67;;;2.33;;
21432;SDS011;18592;49.708;10.900;2023-03-20T03:16:48;4.50;;;2.05;;
21432;SDS011;18592;49.708;10.900;2023-03-20T03:19:06;2.30;;;2.10;;
21432;SDS011;18592;49.708;10.900;2023-03-20T03:21:15;2.55;;;2.33;;
21432;SDS011;18592;49.708;10.900;2023-03-20T03:26:01;2.85;;;2.10;;
21432;SDS011;18592;49.708;10.900;2023-03-20T03:28:11;2.92;;;2.30;;
21432;SDS011;18592;49.708;10.900;2023-03-20T03:30:24;2.65;;;2.22;;
21432;SDS011;18592;49.708;10.900;2023-03-20T03:32:33;2.20;;;2.00;;
21432;SDS011;18592;49.708;10.900;2023-03-20T03:34:38;2.83;;;2.20;;
21432;SDS011;18592;49.708;10.900;2023-03-20T03:36:50;2.20;;;2.00;;
21432;SDS011;18592;49.708;10.900;2023-03-20T03:39:24;2.22;;;2.03;;
21432;SDS011;18592;49.708;10.900;2023-03-20T03:41:34;2.67;;;1.98;;
21432;SDS011;18592;49.708;10.900;2023-03-20T03:43:49;1.95;;;1.80;;
21432;SDS011;18592;49.708;10.900;2023-03-20T03:45:59;2.15;;;1.92;;
21432;SDS011;18592;49.708;10.900;2023-03-20T03:48:10;2.00;;;1.90;;
21432;SDS011;18592;49.708;10.900;2023-03-20T03:50:17;2.05;;;1.88;;
21432;SDS011;18592;49.708;10.900;2023-03-20T03:52:24;2.10;;;1.80;;
21432;SDS011;18592;49.708;10.900;2023-03-20T03:54:32;1.60;;;1.50;;
21432;SDS011;18592;49.708;10.900;2023-03-20T03:57:17;1.50;;;1.40;;
21432;SDS011;18592;49.708;10.900;2023-03-20T03:59:32;1.50;;;1.40;;
21432;SDS011;18592;49.708;10.900;2023-03-20T04:01:38;1.70;;;1.60;;
21432;SDS011;18592;49.708;10.900;2023-03-20T04:03:48;1.85;;;1.60;;
21432;SDS011;18592;49.708;10.900;2023-03-20T04:05:53;1.75;;;1.65;;
21432;SDS011;18592;49.708;10.900;2023-03-20T04:08:00;1.70;;;1.60;;
21432;SDS011;18592;49.708;10.900;2023-03-20T04:10:03;3.25;;;1.70;;
21432;SDS011;18592;49.708;10.900;2023-03-20T04:12:05;1.70;;;1.60;;
21432;SDS011;18592;49.708;10.900;2023-03-20T04:14:06;1.83;;;1.70;;
21432;SDS011;18592;49.708;10.900;2023-03-20T04:16:12;2.13;;;1.80;;
21432;SDS011;18592;49.708;10.900;2023-03-20T04:18:18;2.33;;;2.10;;
21432;SDS011;18592;49.708;10.900;2023-03-20T04:20:21;2.60;;;2.20;;
21432;SDS011;18592;49.708;10.900;2023-03-20T04:22:26;2.67;;;2.10;;
21432;SDS011;18592;49.708;10.900;2023-03-20T04:24:29;2.78;;;2.30;;
21432;SDS011;18592;49.708;10.900;2023-03-20T04:26:31;3.63;;;2.80;;
21432;SDS011;18592;49.708;10.900;2023-03-20T04:28:35;3.33;;;2.50;;
21432;SDS011;18592;49.708;10.900;2023-03-20T04:30:57;2.50;;;2.30;;
21432;SDS011;18592;49.708;10.900;2023-03-20T04:33:18;3.47;;;2.70;;
21432;SDS011;18592;49.708;10.900;2023-03-20T04:35:49;3.15;;;2.80;;
21432;SDS011;18592;49.708;10.900;2023-03-20T04:37:54;3.72;;;2.80;;
21432;SDS011;18592;49.708;10.900;2023-03-20T04:39:56;3.00;;;2.70;;
21432;SDS011;18592;49.708;10.900;2023-03-20T04:41:58;3.13;;;2.83;;
21432;SDS011;18592;49.708;10.900;2023-03-20T04:44:00;4.22;;;2.60;;
21432;SDS011;18592;49.708;10.900;2023-03-20T04:46:04;3.35;;;2.63;;
21432;SDS011;18592;49.708;10.900;2023-03-20T04:48:06;3.20;;;2.90;;
21432;SDS011;18592;49.708;10.900;2023-03-20T04:50:10;2.97;;;2.67;;
21432;SDS011;18592;49.708;10.900;2023-03-20T04:52:14;3.40;;;2.88;;
21432;SDS011;18592;49.708;10.900;2023-03-20T04:54:18;3.10;;;2.80;;
21432;SDS011;18592;49.708;10.900;2023-03-20T04:56:23;3.10;;;2.80;;
21432;SDS011;18592;49.708;10.900;2023-03-20T04:58:28;4.25;;;3.22;;
21432;SDS011;18592;49.708;10.900;2023-03-20T05:00:30;4.13;;;3.00;;
21432;SDS011;18592;49.708;10.900;2023-03-20T05:02:31;3.22;;;2.90;;
21432;SDS011;18592;49.708;10.900;2023-03-20T05:04:33;3.65;;;2.85;;
21432;SDS011;18592;49.708;10.900;2023-03-20T05:06:36;2.97;;;2.72;;
21432;SDS011;18592;49.708;10.900;2023-03-20T05:08:37;3.50;;;2.80;;
21432;SDS011;18592;49.708;10.900;2023-03-20T05:10:39;3.22;;;2.92;;
21432;SDS011;18592;49.708;10.900;2023-03-20T05:13:15;4.20;;;3.40;;
21432;SDS011;18592;49.708;10.900;2023-03-20T05:15:34;3.97;;;3.60;;
21432;SDS011;18592;49.708;10.900;2023-03-20T05:17:54;4.47;;;3.35;;
21432;SDS011;18592;49.708;10.900;2023-03-20T05:20:15;3.83;;;3.13;;
21432;SDS011;18592;49.708;10.900;2023-03-20T05:22:35;4.55;;;3.70;;
21432;SDS011;18592;49.708;10.900;2023-03-20T05:24:47;3.95;;;3.25;;
21432;SDS011;18592;49.708;10.900;2023-03-20T05:26:55;4.68;;;4.20;;
21432;SDS011;18592;49.708;10.900;2023-03-20T05:29:24;3.90;;;3.50;;
21432;SDS011;18592;49.708;10.900;2023-03-20T05:31:44;5.20;;;3.97;;
21432;SDS011;18592;49.708;10.900;2023-03-20T05:34:10;6.55;;;4.68;;
21432;SDS011;18592;49.708;10.900;2023-03-20T05:36:47;4.30;;;3.90;;
21432;SDS011;18592;49.708;10.900;2023-03-20T05:39:14;4.95;;;4.28;;
21432;SDS011;18592;49.708;10.900;2023-03-20T05:41:37;4.72;;;4.13;;
21432;SDS011;18592;49.708;10.900;2023-03-20T05:44:04;4.55;;;3.97;;
21432;SDS011;18592;49.708;10.900;2023-03-20T05:46:30;5.22;;;4.38;;
21432;SDS011;18592;49.708;10.900;2023-03-20T05:48:49;5.65;;;4.40;;
21432;SDS011;18592;49.708;10.900;2023-03-20T05:51:01;5.70;;;4.43;;
21432;SDS011;18592;49.708;10.900;2023-03-20T05:53:22;4.50;;;4.10;;
21432;SDS011;18592;49.708;10.900;2023-03-20T05:55:48;4.95;;;4.45;;
21432;SDS011;18592;49.708;10.900;2023-03-20T05:58:10;5.28;;;4.78;;
21432;SDS011;18592;49.708;10.900;2023-03-20T06:00:31;4.82;;;4.32;;
21432;SDS011;18592;49.708;10.900;2023-03-20T06:03:05;4.85;;;4.45;;
21432;SDS011;18592;49.708;10.900;2023-03-20T06:05:24;4.97;;;4.57;;
21432;SDS011;18592;49.708;10.900;2023-03-20T06:07:26;5.80;;;5.20;;
21432;SDS011;18592;49.708;10.900;2023-03-20T06:09:35;4.60;;;4.20;;
21432;SDS011;18592;49.708;10.900;2023-03-20T06:11:41;5.15;;;4.65;;
21432;SDS011;18592;49.708;10.900;2023-03-20T06:13:43;5.85;;;4.80;;
21432;SDS011;18592;49.708;10.900;2023-03-20T06:15:45;5.38;;;4.82;;
21432;SDS011;18592;49.708;10.900;2023-03-20T06:17:50;4.60;;;4.05;;
21432;SDS011;18592;49.708;10.900;2023-03-20T06:19:52;5.10;;;4.15;;
21432;SDS011;18592;49.708;10.900;2023-03-20T06:21:55;6.15;;;5.05;;
21432;SDS011;18592;49.708;10.900;2023-03-20T06:23:58;6.05;;;5.00;;
21432;SDS011;18592;49.708;10.900;2023-03-20T06:26:01;5.75;;;4.95;;
21432;SDS011;18592;49.708;10.900;2023-03-20T06:28:11;5.90;;;5.30;;
21432;SDS011;18592;49.708;10.900;2023-03-20T06:30:13;5.68;;;5.07;;
21432;SDS011;18592;49.708;10.900;2023-03-20T06:32:16;5.53;;;4.90;;
21432;SDS011;18592;49.708;10.900;2023-03-20T06:34:27;6.20;;;5.30;;
21432;SDS011;18592;49.708;10.900;2023-03-20T06:36:30;5.57;;;5.03;;
21432;SDS011;18592;49.708;10.900;2023-03-20T06:38:38;5.10;;;4.60;;
21432;SDS011;18592;49.708;10.900;2023-03-20T06:40:45;6.03;;;5.43;;
21432;SDS011;18592;49.708;10.900;2023-03-20T06:42:50;5.90;;;5.30;;
21432;SDS011;18592;49.708;10.900;2023-03-20T06:44:52;6.50;;;5.53;;
21432;SDS011;18592;49.708;10.900;2023-03-20T06:47:12;5.57;;;4.97;;
21432;SDS011;18592;49.708;10.900;2023-03-20T06:49:13;6.22;;;5.63;;
21432;SDS011;18592;49.708;10.900;2023-03-20T06:51:15;6.47;;;5.85;;
21432;SDS011;18592;49.708;10.900;2023-03-20T06:53:24;6.80;;;5.30;;
21432;SDS011;18592;49.708;10.900;2023-03-20T06:55:37;5.40;;;4.90;;
21432;SDS011;18592;49.708;10.900;2023-03-20T06:57:39;5.93;;;5.32;;
21432;SDS011;18592;49.708;10.900;2023-03-20T06:59:41;5.90;;;5.30;;
21432;SDS011;18592;49.708;10.900;2023-03-20T07:01:42;7.05;;;5.68;;
21432;SDS011;18592;49.708;10.900;2023-03-20T07:03:47;6.03;;;5.43;;
21432;SDS011;18592;49.708;10.900;2023-03-20T07:05:53;6.22;;;5.55;;
21432;SDS011;18592;49.708;10.900;2023-03-20T07:07:58;5.85;;;5.35;;
21432;SDS011;18592;49.708;10.900;2023-03-20T07:10:01;6.10;;;5.05;;
21432;SDS011;18592;49.708;10.900;2023-03-20T07:12:08;5.97;;;5.38;;
21432;SDS011;18592;49.708;10.900;2023-03-20T07:14:15;5.80;;;4.75;;
21432;SDS011;18592;49.708;10.900;2023-03-20T07:16:34;5.38;;;4.88;;
21432;SDS011;18592;49.708;10.900;2023-03-20T07:18:36;5.55;;;5.00;;
21432;SDS011;18592;49.708;10.900;2023-03-20T07:20:38;5.20;;;4.70;;
21432;SDS011;18592;49.708;10.900;2023-03-20T07:22:39;5.63;;;4.78;;
21432;SDS011;18592;49.708;10.900;2023-03-20T07:24:51;5.82;;;5.20;;
21432;SDS011;18592;49.708;10.900;2023-03-20T07:26:55;4.88;;;4.38;;
21432;SDS011;18592;49.708;10.900;2023-03-20T07:28:56;5.22;;;4.72;;
21432;SDS011;18592;49.708;10.900;2023-03-20T07:31:00;5.05;;;4.60;;
21432;SDS011;18592;49.708;10.900;2023-03-20T07:33:06;5.30;;;4.80;;
21432;SDS011;18592;49.708;10.900;2023-03-20T07:35:08;4.90;;;4.40;;
21432;SDS011;18592;49.708;10.900;2023-03-20T07:37:14;5.72;;;4.35;;
21432;SDS011;18592;49.708;10.900;2023-03-20T07:39:22;6.13;;;5.30;;
21432;SDS011;18592;49.708;10.900;2023-03-20T07:41:42;5.20;;;4.70;;
21432;SDS011;18592;49.708;10.900;2023-03-20T07:43:56;4.85;;;4.18;;
21432;SDS011;18592;49.708;10.900;2023-03-20T07:45:57;4.28;;;3.88;;
21432;SDS011;18592;49.708;10.900;2023-03-20T07:47:58;4.88;;;4.38;;
21432;SDS011;18592;49.708;10.900;2023-03-20T07:50:00;5.55;;;5.05;;
21432;SDS011;18592;49.708;10.900;2023-03-20T07:52:04;5.22;;;4.72;;
21432;SDS011;18592;49.708;10.900;2023-03-20T07:54:05;6.35;;;4.47;;
21432;SDS011;18592;49.708;10.900;2023-03-20T07:56:07;5.03;;;4.53;;
21432;SDS011;18592;49.708;10.900;2023-03-20T07:58:09;5.35;;;4.53;;
21432;SDS011;18592;49.708;10.900;2023-03-20T08:00:14;5.03;;;3.67;;
21432;SDS011;18592;49.708;10.900;2023-03-20T08:02:18;4.85;;;4.30;;
21432;SDS011;18592;49.708;10.900;2023-03-20T08:04:21;4.32;;;3.92;;
21432;SDS011;18592;49.708;10.900;2023-03-20T08:06:23;4.10;;;3.63;;
21432;SDS011;18592;49.708;10.900;2023-03-20T08:08:25;4.55;;;4.15;;
21432;SDS011;18592;49.708;10.900;2023-03-20T08:10:27;4.60;;;4.20;;
21432;SDS011;18592;49.708;10.900;2023-03-20T08:12:28;3.90;;;3.60;;
21432;SDS011;18592;49.708;10.900;2023-03-20T08:14:30;5.00;;;3.90;;
21432;SDS011;18592;49.708;10.900;2023-03-20T08:16:34;4.07;;;3.67;;
21432;SDS011;18592;49.708;10.900;2023-03-20T08:18:36;3.70;;;3.40;;
21432;SDS011;18592;49.708;10.900;2023-03-20T08:20:39;4.05;;;3.40;;
21432;SDS011;18592;49.708;10.900;2023-03-20T08:22:41;4.20;;;3.80;;
21432;SDS011;18592;49.708;10.900;2023-03-20T08:24:44;3.88;;;3.47;;
21432;SDS011;18592;49.708;10.900;2023-03-20T08:26:48;4.18;;;3.47;;
21432;SDS011;18592;49.708;10.900;2023-03-20T08:28:50;3.67;;;3.38;;
21432;SDS011;18592;49.708;10.900;2023-03-20T08:30:52;4.38;;;3.70;;
21432;SDS011;18592;49.708;10.900;2023-03-20T08:32:54;3.83;;;3.25;;
21432;SDS011;18592;49.708;10.900;2023-03-20T08:34:58;4.38;;;3.97;;
21432;SDS011;18592;49.708;10.900;2023-03-20T08:37:02;3.42;;;3.13;;
21432;SDS011;18592;49.708;10.900;2023-03-20T08:39:05;5.47;;;3.60;;
21432;SDS011;18592;49.708;10.900;2023-03-20T08:41:10;3.78;;;3.40;;
21432;SDS011;18592;49.708;10.900;2023-03-20T08:43:11;4.05;;;3.63;;
21432;SDS011;18592;49.708;10.900;2023-03-20T08:45:13;3.30;;;3.00;;
21432;SDS011;18592;49.708;10.900;2023-03-20T08:47:15;4.03;;;3.10;;
21432;SDS011;18592;49.708;10.900;2023-03-20T08:49:16;3.22;;;2.83;;
21432;SDS011;18592;49.708;10.900;2023-03-20T08:51:18;3.08;;;2.78;;
21432;SDS011;18592;49.708;10.900;2023-03-20T08:53:20;3.60;;;3.20;;
21432;SDS011;18592;49.708;10.900;2023-03-20T08:55:22;4.15;;;3.45;;
21432;SDS011;18592;49.708;10.900;2023-03-20T08:57:25;3.95;;;3.55;;
21432;SDS011;18592;49.708;10.900;2023-03-20T08:59:27;3.90;;;3.50;;
21432;SDS011;18592;49.708;10.900;2023-03-20T09:01:29;3.75;;;3.38;;
21432;SDS011;18592;49.708;10.900;2023-03-20T09:03:49;3.97;;;3.55;;
21432;SDS011;18592;49.708;10.900;2023-03-20T09:05:51;4.68;;;4.03;;
21432;SDS011;18592;49.708;10.900;2023-03-20T09:07:52;5.28;;;3.10;;
21432;SDS011;18592;49.708;10.900;2023-03-20T09:09:54;4.50;;;3.30;;
21432;SDS011;18592;49.708;10.900;2023-03-20T09:11:56;3.97;;;3.30;;
21432;SDS011;18592;49.708;10.900;2023-03-20T09:13:59;3.90;;;3.17;;
21432;SDS011;18592;49.708;10.900;2023-03-20T09:16:03;3.33;;;3.03;;
21432;SDS011;18592;49.708;10.900;2023-03-20T09:18:08;4.35;;;3.75;;
21432;SDS011;18592;49.708;10.900;2023-03-20T09:20:10;4.60;;;3.47;;
21432;SDS011;18592;49.708;10.900;2023-03-20T09:22:13;4.88;;;3.42;;
21432;SDS011;18592;49.708;10.900;2023-03-20T09:24:16;3.35;;;2.88;;
21432;SDS011;18592;49.708;10.900;2023-03-20T09:26:18;3.78;;;2.92;;
21432;SDS011;18592;49.708;10.900;2023-03-20T09:28:20;3.88;;;2.90;;
21432;SDS011;18592;49.708;10.900;2023-03-20T09:30:22;4.60;;;3.75;;
21432;SDS011;18592;49.708;10.900;2023-03-20T09:32:24;4.32;;;3.67;;
21432;SDS011;18592;49.708;10.900;2023-03-20T09:34:26;3.90;;;3.00;;
21432;SDS011;18592;49.708;10.900;2023-03-20T09:36:27;3.78;;;3.40;;
21432;SDS011;18592;49.708;10.900;2023-03-20T09:38:29;4.03;;;3.63;;
21432;SDS011;18592;49.708;10.900;2023-03-20T09:40:52;3.55;;;3.25;;
21432;SDS011;18592;49.708;10.900;2023-03-20T09:42:56;4.55;;;3.80;;
21432;SDS011;18592;49.708;10.900;2023-03-20T09:52:27;3.65;;;3.30;;
21432;SDS011;18592;49.708;10.900;2023-03-20T09:54:35;3.15;;;2.85;;
21432;SDS011;18592;49.708;10.900;2023-03-20T09:56:55;3.40;;;3.10;;
21432;SDS011;18592;49.708;10.900;2023-03-20T09:58:58;3.15;;;2.83;;
21432;SDS011;18592;49.708;10.900;2023-03-20T10:01:05;4.40;;;3.97;;
21432;SDS011;18592;49.708;10.900;2023-03-20T10:03:24;5.03;;;4.05;;
21432;SDS011;18592;49.708;10.900;2023-03-20T10:05:28;4.13;;;3.50;;
21432;SDS011;18592;49.708;10.900;2023-03-20T10:07:41;4.50;;;3.78;;
21432;SDS011;18592;49.708;10.900;2023-03-20T10:09:43;4.55;;;3.55;;
21432;SDS011;18592;49.708;10.900;2023-03-20T10:12:02;4.07;;;3.67;;
21432;SDS011;18592;49.708;10.900;2023-03-20T10:16:55;4.82;;;4.00;;
21432;SDS011;18592;49.708;10.900;2023-03-20T10:19:20;6.38;;;4.65;;
21432;SDS011;18592;49.708;10.900;2023-03-20T10:21:31;4.93;;;4.40;;
21432;SDS011;18592;49.708;10.900;2023-03-20T10:26:14;5.40;;;4.30;;
21432;SDS011;18592;49.708;10.900;2023-03-20T10:28:41;4.18;;;3.78;;
21432;SDS011;18592;49.708;10.900;2023-03-20T10:30:48;3.80;;;3.22;;
21432;SDS011;18592;49.708;10.900;2023-03-20T10:33:16;4.88;;;4.32;;
21432;SDS011;18592;49.708;10.900;2023-03-20T10:37:54;5.00;;;4.50;;
21432;SDS011;18592;49.708;10.900;2023-03-20T10:40:21;4.95;;;4.30;;
21432;SDS011;18592;49.708;10.900;2023-03-20T10:42:28;5.50;;;4.60;;
21432;SDS011;18592;49.708;10.900;2023-03-20T10:44:38;6.38;;;5.07;;
21432;SDS011;18592;49.708;10.900;2023-03-20T10:46:45;5.25;;;4.65;;
21432;SDS011;18592;49.708;10.900;2023-03-20T10:48:58;4.80;;;4.30;;
21432;SDS011;18592;49.708;10.900;2023-03-20T10:51:03;5.00;;;4.45;;
21432;SDS011;18592;49.708;10.900;2023-03-20T10:53:09;5.43;;;4.38;;
21432;SDS011;18592;49.708;10.900;2023-03-20T10:55:25;4.95;;;3.65;;
21432;SDS011;18592;49.708;10.900;2023-03-20T10:57:32;4.40;;;4.00;;
21432;SDS011;18592;49.708;10.900;2023-03-20T10:59:46;5.55;;;4.15;;
21432;SDS011;18592;49.708;10.900;2023-03-20T11:01:52;5.07;;;4.43;;
21432;SDS011;18592;49.708;10.900;2023-03-20T11:03:54;4.68;;;4.28;;
21432;SDS011;18592;49.708;10.900;2023-03-20T11:06:00;4.57;;;3.80;;
21432;SDS011;18592;49.708;10.900;2023-03-20T11:08:11;4.30;;;3.90;;
21432;SDS011;18592;49.708;10.900;2023-03-20T11:10:21;4.68;;;3.70;;
21432;SDS011;18592;49.708;10.900;2023-03-20T11:12:26;4.95;;;3.97;;
21432;SDS011;18592;49.708;10.900;2023-03-20T11:14:34;3.67;;;3.38;;
21432;SDS011;18592;49.708;10.900;2023-03-20T11:16:39;4.38;;;3.97;;
21432;SDS011;18592;49.708;10.900;2023-03-20T11:18:41;4.30;;;3.90;;
21432;SDS011;18592;49.708;10.900;2023-03-20T11:21:01;3.90;;;3.50;;
21432;SDS011;18592;49.708;10.900;2023-03-20T11:23:05;4.20;;;3.80;;
21432;SDS011;18592;49.708;10.900;2023-03-20T11:25:19;4.05;;;3.65;;
21432;SDS011;18592;49.708;10.900;2023-03-20T11:27:25;3.90;;;3.55;;
21432;SDS011;18592;49.708;10.900;2023-03-20T11:29:35;3.38;;;3.08;;
21432;SDS011;18592;49.708;10.900;2023-03-20T11:31:38;3.70;;;3.30;;
21432;SDS011;18592;49.708;10.900;2023-03-20T11:33:43;4.18;;;3.25;;
21432;SDS011;18592;49.708;10.900;2023-03-20T11:35:47;4.03;;;3.63;;
21432;SDS011;18592;49.708;10.900;2023-03-20T11:37:54;3.90;;;3.40;;
21432;SDS011;18592;49.708;10.900;2023-03-20T11:40:29;4.68;;;3.22;;
21432;SDS011;18592;49.708;10.900;2023-03-20T11:42:35;4.22;;;3.13;;
21432;SDS011;18592;49.708;10.900;2023-03-20T11:44:37;3.38;;;3.08;;
21432;SDS011;18592;49.708;10.900;2023-03-20T11:46:44;3.20;;;2.90;;
21432;SDS011;18592;49.708;10.900;2023-03-20T11:49:02;3.10;;;2.80;;
21432;SDS011;18592;49.708;10.900;2023-03-20T11:51:18;3.47;;;3.15;;
21432;SDS011;18592;49.708;10.900;2023-03-20T11:53:24;3.72;;;3.42;;
21432;SDS011;18592;49.708;10.900;2023-03-20T11:55:34;3.40;;;3.10;;
21432;SDS011;18592;49.708;10.900;2023-03-20T11:57:37;3.20;;;2.90;;
21432;SDS011;18592;49.708;10.900;2023-03-20T11:59:40;3.13;;;2.88;;
21432;SDS011;18592;49.708;10.900;2023-03-20T12:01:43;3.10;;;2.80;;
21432;SDS011;18592;49.708;10.900;2023-03-20T12:06:08;3.40;;;3.03;;
21432;SDS011;18592;49.708;10.900;2023-03-20T12:08:15;3.13;;;2.80;;
21432;SDS011;18592;49.708;10.900;2023-03-20T12:10:27;3.30;;;3.00;;
21432;SDS011;18592;49.708;10.900;2023-03-20T12:12:35;2.80;;;2.60;;
21432;SDS011;18592;49.708;10.900;2023-03-20T12:14:43;2.88;;;2.58;;
21432;SDS011;18592;49.708;10.900;2023-03-20T12:17:06;2.85;;;2.63;;
21432;SDS011;18592;49.708;10.900;2023-03-20T12:19:21;3.63;;;2.97;;
21432;SDS011;18592;49.708;10.900;2023-03-20T12:21:32;4.00;;;3.13;;
21432;SDS011;18592;49.708;10.900;2023-03-20T12:23:48;3.53;;;3.22;;
21432;SDS011;18592;49.708;10.900;2023-03-20T12:26:14;3.70;;;2.95;;
21432;SDS011;18592;49.708;10.900;2023-03-20T12:35:27;3.42;;;2.88;;
21432;SDS011;18592;49.708;10.900;2023-03-20T12:37:31;3.67;;;3.10;;
21432;SDS011;18592;49.708;10.900;2023-03-20T12:39:37;3.10;;;2.80;;
21432;SDS011;18592;49.708;10.900;2023-03-20T12:44:00;3.35;;;3.00;;
21432;SDS011;18592;49.708;10.900;2023-03-20T12:46:14;3.45;;;2.95;;
21432;SDS011;18592;49.708;10.900;2023-03-20T12:48:41;3.47;;;2.70;;
21432;SDS011;18592;49.708;10.900;2023-03-20T12:51:12;3.35;;;3.05;;
21432;SDS011;18592;49.708;10.900;2023-03-20T12:53:29;3.42;;;3.13;;
21432;SDS011;18592;49.708;10.900;2023-03-20T12:56:10;4.45;;;3.30;;
21432;SDS011;18592;49.708;10.900;2023-03-20T13:00:29;3.20;;;2.90;;
21432;SDS011;18592;49.708;10.900;2023-03-20T13:02:44;4.38;;;3.63;;
21432;SDS011;18592;49.708;10.900;2023-03-20T13:09:58;3.05;;;2.75;;
21432;SDS011;18592;49.708;10.900;2023-03-20T13:12:16;3.30;;;3.00;;
21432;SDS011;18592;49.708;10.900;2023-03-20T13:17:16;3.65;;;2.90;;
21432;SDS011;18592;49.708;10.900;2023-03-20T13:21:47;3.88;;;2.35;;
21432;SDS011;18592;49.708;10.900;2023-03-20T13:26:25;3.33;;;2.83;;
21432;SDS011;18592;49.708;10.900;2023-03-20T13:28:54;3.38;;;2.90;;
21432;SDS011;18592;49.708;10.900;2023-03-20T13:38:17;3.50;;;2.58;;
21432;SDS011;18592;49.708;10.900;2023-03-20T13:42:30;4.45;;;3.25;;
21432;SDS011;18592;49.708;10.900;2023-03-20T13:44:37;3.65;;;2.90;;
21432;SDS011;18592;49.708;10.900;2023-03-20T13:48:54;4.00;;;3.05;;
21432;SDS011;18592;49.708;10.900;2023-03-20T13:56:04;3.22;;;2.58;;
21432;SDS011;18592;49.708;10.900;2023-03-20T13:58:26;3.17;;;2.80;;
21432;SDS011;18592;49.708;10.900;2023-03-20T14:00:53;3.03;;;2.72;;
21432;SDS011;18592;49.708;10.900;2023-03-20T14:05:21;4.13;;;2.97;;
21432;SDS011;18592;49.708;10.900;2023-03-20T14:07:37;5.95;;;3.50;;
21432;SDS011;18592;49.708;10.900;2023-03-20T14:09:42;3.88;;;3.40;;